sensor_id;sensor_type;location;lat;lon;timestamp;pressure;altitude;pressure_sealevel;temperature;humidity
60897;BME280;46749;32.932;-117.130;2023-04-30T00:01:53;101250.78;;;16.94;56.76
60897;BME280;46749;32.932;-117.130;2023-04-30T00:04:19;101249.91;;;16.93;56.72
60897;BME280;46749;32.932;-117.130;2023-04-30T00:06:46;101246.44;;;16.94;56.71
60897;BME280;46749;32.932;-117.130;2023-04-30T00:09:12;101246.44;;;16.96;56.65
60897;BME280;46749;32.932;-117.130;2023-04-30T00:11:38;101245.59;;;16.97;56.76
60897;BME280;46749;32.932;-117.130;2023-04-30T00:14:04;101242.09;;;16.96;56.65
60897;BME280;46749;32.932;-117.130;2023-04-30T00:16:31;101239.47;;;16.96;56.75
60897;BME280;46749;32.932;-117.130;2023-04-30T00:18:57;101236.84;;;16.96;56.75
60897;BME280;46749;32.932;-117.130;2023-04-30T00:21:23;101243.81;;;16.96;56.79
60897;BME280;46749;32.932;-117.130;2023-04-30T00:23:49;101253.44;;;16.95;56.65
60897;BME280;46749;32.932;-117.130;2023-04-30T00:26:15;101252.59;;;16.96;57.00
60897;BME280;46749;32.932;-117.130;2023-04-30T00:28:42;101253.47;;;16.97;56.78
60897;BME280;46749;32.932;-117.130;2023-04-30T00:31:28;101255.28;;;16.99;56.65
60897;BME280;46749;32.932;-117.130;2023-04-30T00:33:54;101255.28;;;16.99;56.77
60897;BME280;46749;32.932;-117.130;2023-04-30T00:36:21;101256.16;;;17.00;56.70
60897;BME280;46749;32.932;-117.130;2023-04-30T00:38:47;101250.91;;;16.98;56.66
60897;BME280;46749;32.932;-117.130;2023-04-30T00:41:13;101254.41;;;16.99;56.84
60897;BME280;46749;32.932;-117.130;2023-04-30T00:43:40;101245.66;;;16.98;56.69
60897;BME280;46749;32.932;-117.130;2023-04-30T00:46:06;101243.03;;;16.98;56.79
60897;BME280;46749;32.932;-117.130;2023-04-30T00:48:33;101243.91;;;16.99;56.82
60897;BME280;46749;32.932;-117.130;2023-04-30T00:51:01;101239.53;;;16.99;56.71
60897;BME280;46749;32.932;-117.130;2023-04-30T00:53:28;101233.44;;;17.02;56.71
60897;BME280;46749;32.932;-117.130;2023-04-30T00:55:54;101233.44;;;17.02;56.79
60897;BME280;46749;32.932;-117.130;2023-04-30T00:58:22;101230.81;;;17.02;56.67
60897;BME280;46749;32.932;-117.130;2023-04-30T01:00:48;101221.22;;;17.03;56.81
60897;BME280;46749;32.932;-117.130;2023-04-30T01:03:15;101220.31;;;17.01;56.76
60897;BME280;46749;32.932;-117.130;2023-04-30T01:05:41;101217.69;;;17.01;56.88
60897;BME280;46749;32.932;-117.130;2023-04-30T01:08:08;101217.69;;;17.01;56.85
60897;BME280;46749;32.932;-117.130;2023-04-30T01:10:53;101214.19;;;17.02;56.74
60897;BME280;46749;32.932;-117.130;2023-04-30T01:13:30;101221.22;;;17.03;56.88
60897;BME280;46749;32.932;-117.130;2023-04-30T01:16:27;101214.22;;;17.03;56.72
60897;BME280;46749;32.932;-117.130;2023-04-30T01:21:42;101212.50;;;17.04;56.82
60897;BME280;46749;32.932;-117.130;2023-04-30T01:29:41;101217.69;;;17.02;56.76
60897;BME280;46749;32.932;-117.130;2023-04-30T01:32:09;101208.09;;;17.03;56.74
60897;BME280;46749;32.932;-117.130;2023-04-30T01:34:36;101213.34;;;17.03;56.87
60897;BME280;46749;32.932;-117.130;2023-04-30T01:37:27;101213.38;;;17.04;56.84
60897;BME280;46749;32.932;-117.130;2023-04-30T01:40:07;101210.75;;;17.04;56.61
60897;BME280;46749;32.932;-117.130;2023-04-30T01:42:48;101205.50;;;17.04;56.89
60897;BME280;46749;32.932;-117.130;2023-04-30T01:45:38;101210.75;;;17.04;56.78
60897;BME280;46749;32.932;-117.130;2023-04-30T01:48:42;101211.66;;;17.05;56.77
60897;BME280;46749;32.932;-117.130;2023-04-30T01:51:31;101202.03;;;17.05;56.64
60897;BME280;46749;32.932;-117.130;2023-04-30T01:54:05;101199.41;;;17.07;56.86
60897;BME280;46749;32.932;-117.130;2023-04-30T01:56:43;101209.03;;;17.06;56.86
60897;BME280;46749;32.932;-117.130;2023-04-30T01:59:12;101208.16;;;17.06;56.69
60897;BME280;46749;32.932;-117.130;2023-04-30T02:01:39;101211.66;;;17.05;56.89
60897;BME280;46749;32.932;-117.130;2023-04-30T02:04:05;101211.66;;;17.05;56.88
60897;BME280;46749;32.932;-117.130;2023-04-30T02:06:32;101211.66;;;17.05;56.94
60897;BME280;46749;32.932;-117.130;2023-04-30T02:08:58;101205.53;;;17.06;56.80
60897;BME280;46749;32.932;-117.130;2023-04-30T02:11:30;101212.53;;;17.07;56.72
60897;BME280;46749;32.932;-117.130;2023-04-30T02:13:56;101212.53;;;17.07;56.80
60897;BME280;46749;32.932;-117.130;2023-04-30T02:16:23;101209.91;;;17.07;56.79
60897;BME280;46749;32.932;-117.130;2023-04-30T02:18:49;101208.16;;;17.06;56.75
60897;BME280;46749;32.932;-117.130;2023-04-30T02:21:15;101208.16;;;17.06;56.82
60897;BME280;46749;32.932;-117.130;2023-04-30T02:23:41;101209.03;;;17.05;56.73
60897;BME280;46749;32.932;-117.130;2023-04-30T02:26:08;101210.75;;;17.04;56.73
60897;BME280;46749;32.932;-117.130;2023-04-30T02:28:34;101210.75;;;17.04;56.81
60897;BME280;46749;32.932;-117.130;2023-04-30T02:31:00;101206.41;;;17.05;56.74
60897;BME280;46749;32.932;-117.130;2023-04-30T02:33:26;101209.88;;;17.04;56.83
60897;BME280;46749;32.932;-117.130;2023-04-30T02:35:53;101202.91;;;17.06;56.70
60897;BME280;46749;32.932;-117.130;2023-04-30T02:38:20;101203.78;;;17.06;56.59
60897;BME280;46749;32.932;-117.130;2023-04-30T02:40:46;101206.44;;;17.08;56.70
60897;BME280;46749;32.932;-117.130;2023-04-30T02:43:12;101206.44;;;17.08;56.68
60897;BME280;46749;32.932;-117.130;2023-04-30T02:45:38;101203.81;;;17.08;56.60
60897;BME280;46749;32.932;-117.130;2023-04-30T02:48:04;101203.78;;;17.06;56.77
60897;BME280;46749;32.932;-117.130;2023-04-30T02:50:31;101201.16;;;17.05;56.78
60897;BME280;46749;32.932;-117.130;2023-04-30T02:52:57;101200.28;;;17.04;56.74
60897;BME280;46749;32.932;-117.130;2023-04-30T02:55:24;101191.53;;;17.05;56.82
60897;BME280;46749;32.932;-117.130;2023-04-30T02:57:50;101200.28;;;17.06;56.78
60897;BME280;46749;32.932;-117.130;2023-04-30T03:00:17;101204.66;;;17.07;56.71
60897;BME280;46749;32.932;-117.130;2023-04-30T03:02:43;101211.69;;;17.08;56.78
60897;BME280;46749;32.932;-117.130;2023-04-30T03:05:10;101216.94;;;17.08;56.69
60897;BME280;46749;32.932;-117.130;2023-04-30T03:07:36;101214.31;;;17.08;56.60
60897;BME280;46749;32.932;-117.130;2023-04-30T03:10:03;101215.16;;;17.07;56.80
60897;BME280;46749;32.932;-117.130;2023-04-30T03:12:29;101217.78;;;17.07;56.70
60897;BME280;46749;32.932;-117.130;2023-04-30T03:14:55;101212.53;;;17.05;56.78
60897;BME280;46749;32.932;-117.130;2023-04-30T03:17:21;101215.16;;;17.07;56.77
60897;BME280;46749;32.932;-117.130;2023-04-30T03:19:49;101217.81;;;17.08;56.83
60897;BME280;46749;32.932;-117.130;2023-04-30T03:22:16;101218.69;;;17.09;56.84
60897;BME280;46749;32.932;-117.130;2023-04-30T03:24:45;101224.81;;;17.08;56.76
60897;BME280;46749;32.932;-117.130;2023-04-30T03:27:11;101223.06;;;17.08;56.74
60897;BME280;46749;32.932;-117.130;2023-04-30T03:29:38;101235.31;;;17.08;56.62
60897;BME280;46749;32.932;-117.130;2023-04-30T03:32:05;101235.31;;;17.09;56.60
60897;BME280;46749;32.932;-117.130;2023-04-30T03:34:31;101239.75;;;17.10;56.72
60897;BME280;46749;32.932;-117.130;2023-04-30T03:36:57;101240.56;;;17.09;56.91
60897;BME280;46749;32.932;-117.130;2023-04-30T03:39:23;101238.81;;;17.08;56.88
60897;BME280;46749;32.932;-117.130;2023-04-30T03:41:49;101237.94;;;17.08;56.71
60897;BME280;46749;32.932;-117.130;2023-04-30T03:44:16;101238.78;;;17.07;56.68
60897;BME280;46749;32.932;-117.130;2023-04-30T03:46:42;101249.25;;;17.05;56.71
60897;BME280;46749;32.932;-117.130;2023-04-30T03:49:08;101252.75;;;17.04;56.75
60897;BME280;46749;32.932;-117.130;2023-04-30T03:51:36;101245.72;;;17.03;56.67
60897;BME280;46749;32.932;-117.130;2023-04-30T03:54:05;101251.88;;;17.04;56.75
60897;BME280;46749;32.932;-117.130;2023-04-30T03:56:32;101259.75;;;17.04;56.79
60897;BME280;46749;32.932;-117.130;2023-04-30T03:58:59;101262.38;;;17.05;56.72
60897;BME280;46749;32.932;-117.130;2023-04-30T04:01:25;101261.53;;;17.06;56.72
60897;BME280;46749;32.932;-117.130;2023-04-30T04:03:52;101269.41;;;17.06;56.58
60897;BME280;46749;32.932;-117.130;2023-04-30T04:06:19;101271.13;;;17.06;56.64
60897;BME280;46749;32.932;-117.130;2023-04-30T04:08:45;101272.00;;;17.05;56.79
60897;BME280;46749;32.932;-117.130;2023-04-30T04:11:11;101271.13;;;17.06;56.72
60897;BME280;46749;32.932;-117.130;2023-04-30T04:13:38;101267.66;;;17.07;56.54
60897;BME280;46749;32.932;-117.130;2023-04-30T04:16:04;101268.53;;;17.07;56.58
60897;BME280;46749;32.932;-117.130;2023-04-30T04:18:31;101276.44;;;17.09;56.52
60897;BME280;46749;32.932;-117.130;2023-04-30T04:20:57;101278.16;;;17.08;56.61
60897;BME280;46749;32.932;-117.130;2023-04-30T04:23:23;101277.28;;;17.06;56.60
60897;BME280;46749;32.932;-117.130;2023-04-30T04:25:49;101278.13;;;17.05;56.59
60897;BME280;46749;32.932;-117.130;2023-04-30T04:28:17;101279.88;;;17.05;56.79
60897;BME280;46749;32.932;-117.130;2023-04-30T04:30:43;101281.63;;;17.06;56.69
60897;BME280;46749;32.932;-117.130;2023-04-30T04:33:10;101279.00;;;17.06;56.61
60897;BME280;46749;32.932;-117.130;2023-04-30T04:35:37;101279.91;;;17.08;56.61
60897;BME280;46749;32.932;-117.130;2023-04-30T04:38:03;101274.66;;;17.08;56.68
60897;BME280;46749;32.932;-117.130;2023-04-30T04:40:30;101274.66;;;17.06;56.70
60897;BME280;46749;32.932;-117.130;2023-04-30T04:42:56;101265.00;;;17.04;56.69
60897;BME280;46749;32.932;-117.130;2023-04-30T04:45:22;101274.56;;;17.02;56.51
60897;BME280;46749;32.932;-117.130;2023-04-30T04:47:49;101278.03;;;17.01;56.61
60897;BME280;46749;32.932;-117.130;2023-04-30T04:50:15;101272.78;;;17.01;56.73
60897;BME280;46749;32.932;-117.130;2023-04-30T04:52:42;101275.44;;;17.02;56.53
60897;BME280;46749;32.932;-117.130;2023-04-30T04:55:08;101279.88;;;17.05;56.61
60897;BME280;46749;32.932;-117.130;2023-04-30T04:57:36;101279.88;;;17.05;56.48
60897;BME280;46749;32.932;-117.130;2023-04-30T05:00:02;101273.75;;;17.04;56.65
60897;BME280;46749;32.932;-117.130;2023-04-30T05:02:31;101278.13;;;17.04;56.50
60897;BME280;46749;32.932;-117.130;2023-04-30T05:04:57;101268.50;;;17.04;56.54
60897;BME280;46749;32.932;-117.130;2023-04-30T05:07:23;101265.88;;;17.04;56.26
60897;BME280;46749;32.932;-117.130;2023-04-30T05:09:50;101269.38;;;17.05;56.45
60897;BME280;46749;32.932;-117.130;2023-04-30T05:12:16;101265.91;;;17.06;56.45
60897;BME280;46749;32.932;-117.130;2023-04-30T05:14:42;101267.63;;;17.05;56.44
60897;BME280;46749;32.932;-117.130;2023-04-30T05:17:09;101275.44;;;17.02;56.50
60897;BME280;46749;32.932;-117.130;2023-04-30T05:19:35;101268.41;;;16.99;56.39
60897;BME280;46749;32.932;-117.130;2023-04-30T05:22:02;101278.88;;;16.98;56.45
60897;BME280;46749;32.932;-117.130;2023-04-30T05:24:29;101274.47;;;16.97;56.51
60897;BME280;46749;32.932;-117.130;2023-04-30T05:26:55;101274.44;;;16.95;56.43
60897;BME280;46749;32.932;-117.130;2023-04-30T05:29:21;101277.06;;;16.95;56.67
60897;BME280;46749;32.932;-117.130;2023-04-30T05:31:47;101280.56;;;16.96;56.46
60897;BME280;46749;32.932;-117.130;2023-04-30T05:34:14;101271.00;;;16.98;56.36
60897;BME280;46749;32.932;-117.130;2023-04-30T05:36:40;101274.50;;;16.98;56.55
60897;BME280;46749;32.932;-117.130;2023-04-30T05:39:06;101272.75;;;16.99;56.42
60897;BME280;46749;32.932;-117.130;2023-04-30T05:41:33;101271.00;;;16.98;56.53
60897;BME280;46749;32.932;-117.130;2023-04-30T05:44:00;101264.81;;;16.96;56.56
60897;BME280;46749;32.932;-117.130;2023-04-30T05:46:27;101263.94;;;16.95;56.35
60897;BME280;46749;32.932;-117.130;2023-04-30T05:48:54;101268.31;;;16.96;56.53
60897;BME280;46749;32.932;-117.130;2023-04-30T05:51:20;101266.59;;;16.97;56.32
60897;BME280;46749;32.932;-117.130;2023-04-30T05:53:46;101266.63;;;16.98;56.34
60897;BME280;46749;32.932;-117.130;2023-04-30T05:56:13;101270.13;;;16.99;56.36
60897;BME280;46749;32.932;-117.130;2023-04-30T05:58:39;101271.84;;;16.97;56.47
60897;BME280;46749;32.932;-117.130;2023-04-30T06:01:05;101270.91;;;16.93;56.57
60897;BME280;46749;32.932;-117.130;2023-04-30T06:03:34;101277.91;;;16.93;56.53
60897;BME280;46749;32.932;-117.130;2023-04-30T06:06:01;101274.31;;;16.89;56.50
60897;BME280;46749;32.932;-117.130;2023-04-30T06:08:27;101258.56;;;16.89;56.47
60897;BME280;46749;32.932;-117.130;2023-04-30T06:10:54;101269.94;;;16.90;56.43
60897;BME280;46749;32.932;-117.130;2023-04-30T06:13:21;101275.28;;;16.93;56.39
60897;BME280;46749;32.932;-117.130;2023-04-30T06:15:47;101264.81;;;16.94;56.33
60897;BME280;46749;32.932;-117.130;2023-04-30T06:18:15;101266.56;;;16.95;56.42
60897;BME280;46749;32.932;-117.130;2023-04-30T06:20:41;101252.53;;;16.93;56.33
60897;BME280;46749;32.932;-117.130;2023-04-30T06:23:08;101259.50;;;16.91;56.49
60897;BME280;46749;32.932;-117.130;2023-04-30T06:25:34;101252.44;;;16.89;56.46
60897;BME280;46749;32.932;-117.130;2023-04-30T06:28:00;101260.28;;;16.87;56.55
60897;BME280;46749;32.932;-117.130;2023-04-30T06:30:27;101252.41;;;16.86;56.41
60897;BME280;46749;32.932;-117.130;2023-04-30T06:32:55;101249.72;;;16.84;56.51
60897;BME280;46749;32.932;-117.130;2023-04-30T06:35:22;101253.22;;;16.83;56.54
60897;BME280;46749;32.932;-117.130;2023-04-30T06:37:49;101247.09;;;16.83;56.68
60897;BME280;46749;32.932;-117.130;2023-04-30T06:40:15;101241.84;;;16.83;56.46
60897;BME280;46749;32.932;-117.130;2023-04-30T06:42:41;101244.53;;;16.86;56.95
60897;BME280;46749;32.932;-117.130;2023-04-30T06:45:08;101243.69;;;16.87;56.51
60897;BME280;46749;32.932;-117.130;2023-04-30T06:47:35;101248.94;;;16.88;56.33
60897;BME280;46749;32.932;-117.130;2023-04-30T06:50:03;101239.28;;;16.86;56.45
60897;BME280;46749;32.932;-117.130;2023-04-30T06:52:30;101254.09;;;16.84;56.49
60897;BME280;46749;32.932;-117.130;2023-04-30T06:54:56;101240.94;;;16.82;56.60
60897;BME280;46749;32.932;-117.130;2023-04-30T06:57:22;101249.69;;;16.81;56.51
60897;BME280;46749;32.932;-117.130;2023-04-30T06:59:49;101244.34;;;16.78;56.60
60897;BME280;46749;32.932;-117.130;2023-04-30T07:02:15;101245.28;;;16.79;56.53
60897;BME280;46749;32.932;-117.130;2023-04-30T07:04:41;101240.06;;;16.80;56.59
60897;BME280;46749;32.932;-117.130;2023-04-30T07:07:08;101231.31;;;16.81;56.49
60897;BME280;46749;32.932;-117.130;2023-04-30T07:09:34;101233.97;;;16.84;56.43
60897;BME280;46749;32.932;-117.130;2023-04-30T07:12:01;101240.16;;;16.85;56.40
60897;BME280;46749;32.932;-117.130;2023-04-30T07:14:27;101241.03;;;16.85;56.33
60897;BME280;46749;32.932;-117.130;2023-04-30T07:16:53;101241.03;;;16.85;56.21
60897;BME280;46749;32.932;-117.130;2023-04-30T07:19:19;101242.78;;;16.86;56.38
60897;BME280;46749;32.932;-117.130;2023-04-30T07:21:46;101246.28;;;16.87;56.27
60897;BME280;46749;32.932;-117.130;2023-04-30T07:24:12;101248.84;;;16.84;56.09
60897;BME280;46749;32.932;-117.130;2023-04-30T07:26:38;101239.19;;;16.81;56.31
60897;BME280;46749;32.932;-117.130;2023-04-30T07:29:04;101241.78;;;16.80;56.36
60897;BME280;46749;32.932;-117.130;2023-04-30T07:31:30;101243.47;;;16.78;56.39
60897;BME280;46749;32.932;-117.130;2023-04-30T07:33:58;101240.81;;;16.75;56.47
60897;BME280;46749;32.932;-117.130;2023-04-30T07:36:24;101247.81;;;16.74;56.14
60897;BME280;46749;32.932;-117.130;2023-04-30T07:38:52;101242.56;;;16.74;56.50
60897;BME280;46749;32.932;-117.130;2023-04-30T07:41:18;101234.72;;;16.76;56.46
60897;BME280;46749;32.932;-117.130;2023-04-30T07:43:45;101239.13;;;16.78;56.41
60897;BME280;46749;32.932;-117.130;2023-04-30T07:46:11;101236.50;;;16.78;56.28
60897;BME280;46749;32.932;-117.130;2023-04-30T07:48:37;101236.50;;;16.78;56.25
60897;BME280;46749;32.932;-117.130;2023-04-30T07:51:04;101240.03;;;16.79;56.36
60897;BME280;46749;32.932;-117.130;2023-04-30T07:53:30;101237.41;;;16.79;56.24
60897;BME280;46749;32.932;-117.130;2023-04-30T07:55:56;101232.19;;;16.80;56.26
60897;BME280;46749;32.932;-117.130;2023-04-30T07:58:23;101233.88;;;16.78;55.87
60897;BME280;46749;32.932;-117.130;2023-04-30T08:00:49;101226.84;;;16.77;56.35
60897;BME280;46749;32.932;-117.130;2023-04-30T08:03:15;101230.31;;;16.73;56.31
60897;BME280;46749;32.932;-117.130;2023-04-30T08:05:41;101241.66;;;16.72;56.28
60897;BME280;46749;32.932;-117.130;2023-04-30T08:08:08;101225.94;;;16.74;56.21
60897;BME280;46749;32.932;-117.130;2023-04-30T08:10:34;101226.81;;;16.74;56.18
60897;BME280;46749;32.932;-117.130;2023-04-30T08:13:03;101234.72;;;16.76;56.21
60897;BME280;46749;32.932;-117.130;2023-04-30T08:15:30;101233.81;;;16.75;56.16
60897;BME280;46749;32.932;-117.130;2023-04-30T08:17:58;101240.78;;;16.73;56.13
60897;BME280;46749;32.932;-117.130;2023-04-30T08:20:24;101229.38;;;16.71;56.23
60897;BME280;46749;32.932;-117.130;2023-04-30T08:22:50;101233.66;;;16.67;56.37
60897;BME280;46749;32.932;-117.130;2023-04-30T08:25:17;101224.91;;;16.67;56.15
60897;BME280;46749;32.932;-117.130;2023-04-30T08:27:43;101223.13;;;16.66;56.32
60897;BME280;46749;32.932;-117.130;2023-04-30T08:30:10;101220.44;;;16.63;56.37
60897;BME280;46749;32.932;-117.130;2023-04-30T08:32:36;101214.31;;;16.62;56.46
60897;BME280;46749;32.932;-117.130;2023-04-30T08:35:06;101215.19;;;16.63;56.44
60897;BME280;46749;32.932;-117.130;2023-04-30T08:37:33;101214.34;;;16.64;56.35
60897;BME280;46749;32.932;-117.130;2023-04-30T08:39:59;101217.91;;;16.66;56.40
60897;BME280;46749;32.932;-117.130;2023-04-30T08:42:30;101210.94;;;16.68;56.13
60897;BME280;46749;32.932;-117.130;2023-04-30T08:44:59;101207.41;;;16.66;56.22
60897;BME280;46749;32.932;-117.130;2023-04-30T08:47:27;101203.84;;;16.64;56.18
60897;BME280;46749;32.932;-117.130;2023-04-30T08:49:53;101195.06;;;16.62;56.32
60897;BME280;46749;32.932;-117.130;2023-04-30T08:52:20;101190.69;;;16.61;56.28
60897;BME280;46749;32.932;-117.130;2023-04-30T08:54:47;101181.94;;;16.60;56.30
60897;BME280;46749;32.932;-117.130;2023-04-30T08:57:15;101186.31;;;16.60;56.27
60897;BME280;46749;32.932;-117.130;2023-04-30T08:59:44;101184.59;;;16.62;56.35
60897;BME280;46749;32.932;-117.130;2023-04-30T09:02:13;101188.97;;;16.63;56.43
60897;BME280;46749;32.932;-117.130;2023-04-30T09:04:39;101185.47;;;16.62;56.23
60897;BME280;46749;32.932;-117.130;2023-04-30T09:07:06;101181.09;;;16.61;56.08
60897;BME280;46749;32.932;-117.130;2023-04-30T09:09:37;101175.75;;;16.58;56.23
60897;BME280;46749;32.932;-117.130;2023-04-30T09:12:14;101165.25;;;16.57;56.38
60897;BME280;46749;32.932;-117.130;2023-04-30T09:15:04;101161.78;;;16.58;56.25
60897;BME280;46749;32.932;-117.130;2023-04-30T09:17:32;101165.28;;;16.58;56.20
60897;BME280;46749;32.932;-117.130;2023-04-30T09:20:12;101157.47;;;16.60;56.06
60897;BME280;46749;32.932;-117.130;2023-04-30T09:22:40;101153.03;;;16.59;56.09
60897;BME280;46749;32.932;-117.130;2023-04-30T09:25:08;101150.41;;;16.57;56.17
60897;BME280;46749;32.932;-117.130;2023-04-30T09:27:34;101148.63;;;16.55;56.11
60897;BME280;46749;32.932;-117.130;2023-04-30T09:30:01;101154.72;;;16.54;56.19
60897;BME280;46749;32.932;-117.130;2023-04-30T09:32:28;101152.13;;;16.55;56.10
60897;BME280;46749;32.932;-117.130;2023-04-30T09:34:54;101139.88;;;16.56;56.03
60897;BME280;46749;32.932;-117.130;2023-04-30T09:37:21;101146.03;;;16.58;56.16
60897;BME280;46749;32.932;-117.130;2023-04-30T09:39:49;101146.03;;;16.58;56.05
60897;BME280;46749;32.932;-117.130;2023-04-30T09:42:16;101135.50;;;16.55;56.07
60897;BME280;46749;32.932;-117.130;2023-04-30T09:44:43;101136.31;;;16.52;56.15
60897;BME280;46749;32.932;-117.130;2023-04-30T09:47:11;101138.91;;;16.51;56.29
60897;BME280;46749;32.932;-117.130;2023-04-30T09:49:43;101143.25;;;16.49;56.20
60897;BME280;46749;32.932;-117.130;2023-04-30T09:52:14;101144.94;;;16.46;56.13
60897;BME280;46749;32.932;-117.130;2023-04-30T09:54:43;101148.47;;;16.47;56.38
60897;BME280;46749;32.932;-117.130;2023-04-30T09:57:10;101144.13;;;16.48;56.24
60897;BME280;46749;32.932;-117.130;2023-04-30T09:59:43;101140.63;;;16.49;56.43
60897;BME280;46749;32.932;-117.130;2023-04-30T10:02:13;101145.03;;;16.50;56.15
60897;BME280;46749;32.932;-117.130;2023-04-30T10:04:45;101142.41;;;16.50;55.90
60897;BME280;46749;32.932;-117.130;2023-04-30T10:07:19;101138.88;;;16.48;56.06
60897;BME280;46749;32.932;-117.130;2023-04-30T10:10:08;101150.19;;;16.46;56.01
60897;BME280;46749;32.932;-117.130;2023-04-30T10:12:39;101150.19;;;16.46;56.17
60897;BME280;46749;32.932;-117.130;2023-04-30T10:15:25;101146.75;;;16.48;56.00
60897;BME280;46749;32.932;-117.130;2023-04-30T10:18:01;101146.75;;;16.48;56.08
60897;BME280;46749;32.932;-117.130;2023-04-30T10:20:28;101142.38;;;16.48;56.16
60897;BME280;46749;32.932;-117.130;2023-04-30T10:22:56;101147.56;;;16.46;56.19
60897;BME280;46749;32.932;-117.130;2023-04-30T10:25:23;101143.13;;;16.42;56.20
60897;BME280;46749;32.932;-117.130;2023-04-30T10:27:51;101137.88;;;16.41;56.19
60897;BME280;46749;32.932;-117.130;2023-04-30T10:30:17;101132.56;;;16.38;56.30
60897;BME280;46749;32.932;-117.130;2023-04-30T10:32:53;101142.16;;;16.37;56.34
60897;BME280;46749;32.932;-117.130;2023-04-30T10:35:25;101139.53;;;16.36;56.20
60897;BME280;46749;32.932;-117.130;2023-04-30T10:37:58;101138.63;;;16.35;56.33
60897;BME280;46749;32.932;-117.130;2023-04-30T10:40:27;101135.16;;;16.36;56.32
60897;BME280;46749;32.932;-117.130;2023-04-30T10:42:53;101133.44;;;16.38;56.29
60897;BME280;46749;32.932;-117.130;2023-04-30T10:45:36;101135.19;;;16.39;56.07
60897;BME280;46749;32.932;-117.130;2023-04-30T10:48:04;101133.44;;;16.38;55.96
60897;BME280;46749;32.932;-117.130;2023-04-30T10:50:30;101130.78;;;16.37;55.96
60897;BME280;46749;32.932;-117.130;2023-04-30T10:53:04;101130.78;;;16.35;56.11
60897;BME280;46749;32.932;-117.130;2023-04-30T10:55:32;101136.88;;;16.34;56.17
60897;BME280;46749;32.932;-117.130;2023-04-30T10:57:58;101135.09;;;16.33;56.12
60897;BME280;46749;32.932;-117.130;2023-04-30T11:00:26;101126.38;;;16.34;56.29
60897;BME280;46749;32.932;-117.130;2023-04-30T11:03:02;101134.25;;;16.34;56.24
60897;BME280;46749;32.932;-117.130;2023-04-30T11:05:38;101128.19;;;16.37;55.95
60897;BME280;46749;32.932;-117.130;2023-04-30T11:08:05;101129.91;;;16.35;55.99
60897;BME280;46749;32.932;-117.130;2023-04-30T11:10:36;101128.06;;;16.32;56.13
60897;BME280;46749;32.932;-117.130;2023-04-30T11:13:04;101128.94;;;16.31;56.13
60897;BME280;46749;32.932;-117.130;2023-04-30T11:15:39;101127.19;;;16.32;56.02
60897;BME280;46749;32.932;-117.130;2023-04-30T11:18:08;101121.97;;;16.33;56.04
60897;BME280;46749;32.932;-117.130;2023-04-30T11:20:39;101121.16;;;16.34;56.01
60897;BME280;46749;32.932;-117.130;2023-04-30T11:23:16;101118.53;;;16.34;56.02
60897;BME280;46749;32.932;-117.130;2023-04-30T11:25:44;101115.84;;;16.31;56.19
60897;BME280;46749;32.932;-117.130;2023-04-30T11:28:19;101122.78;;;16.29;56.22
60897;BME280;46749;32.932;-117.130;2023-04-30T11:31:04;101115.78;;;16.28;56.18
60897;BME280;46749;32.932;-117.130;2023-04-30T11:33:32;101118.34;;;16.27;56.12
60897;BME280;46749;32.932;-117.130;2023-04-30T11:35:59;101119.22;;;16.27;56.21
60897;BME280;46749;32.932;-117.130;2023-04-30T11:40:52;101110.53;;;16.28;55.97
60897;BME280;46749;32.932;-117.130;2023-04-30T11:43:27;101118.44;;;16.30;56.06
60897;BME280;46749;32.932;-117.130;2023-04-30T11:48:33;101109.69;;;16.29;55.92
60897;BME280;46749;32.932;-117.130;2023-04-30T11:51:03;101105.34;;;16.31;56.07
60897;BME280;46749;32.932;-117.130;2023-04-30T11:53:29;101106.22;;;16.32;56.13
60897;BME280;46749;32.932;-117.130;2023-04-30T11:55:56;101097.50;;;16.33;55.96
60897;BME280;46749;32.932;-117.130;2023-04-30T11:58:22;101101.88;;;16.32;56.13
60897;BME280;46749;32.932;-117.130;2023-04-30T12:00:49;101100.97;;;16.30;56.07
60897;BME280;46749;32.932;-117.130;2023-04-30T12:03:17;101105.31;;;16.28;56.15
60897;BME280;46749;32.932;-117.130;2023-04-30T12:05:45;101092.13;;;16.25;56.20
60897;BME280;46749;32.932;-117.130;2023-04-30T12:08:12;101092.09;;;16.24;56.23
60897;BME280;46749;32.932;-117.130;2023-04-30T12:10:38;101088.63;;;16.25;56.17
60897;BME280;46749;32.932;-117.130;2023-04-30T12:13:04;101094.75;;;16.25;55.92
60897;BME280;46749;32.932;-117.130;2023-04-30T12:15:30;101090.38;;;16.26;56.07
60897;BME280;46749;32.932;-117.130;2023-04-30T12:17:58;101086.03;;;16.26;56.18
60897;BME280;46749;32.932;-117.130;2023-04-30T12:20:29;101091.25;;;16.26;55.80
60897;BME280;46749;32.932;-117.130;2023-04-30T12:22:57;101088.59;;;16.23;56.04
60897;BME280;46749;32.932;-117.130;2023-04-30T12:25:23;101088.53;;;16.22;56.28
60897;BME280;46749;32.932;-117.130;2023-04-30T12:27:52;101079.78;;;16.19;56.00
60897;BME280;46749;32.932;-117.130;2023-04-30T12:30:20;101085.03;;;16.21;56.04
60897;BME280;46749;32.932;-117.130;2023-04-30T12:32:52;101083.38;;;16.23;56.22
60897;BME280;46749;32.932;-117.130;2023-04-30T12:35:20;101085.16;;;16.26;56.19
60897;BME280;46749;32.932;-117.130;2023-04-30T12:37:51;101079.91;;;16.26;56.10
60897;BME280;46749;32.932;-117.130;2023-04-30T12:40:25;101077.25;;;16.24;55.91